createdAt,value
2018-01-08T00:00:26.160Z,0
2018-01-08T00:01:06.721Z,0
2018-01-08T00:01:47.293Z,0
2018-01-08T00:02:27.920Z,0
2018-01-08T00:03:08.469Z,0
2018-01-08T00:03:49.081Z,0
2018-01-08T00:04:29.711Z,0
2018-01-08T00:05:10.303Z,0
2018-01-08T00:05:50.866Z,0
2018-01-08T00:06:31.424Z,0
2018-01-08T00:07:11.986Z,0
2018-01-08T00:07:52.552Z,0
2018-01-08T00:08:33.122Z,0
2018-01-08T00:09:13.738Z,0
2018-01-08T00:09:54.317Z,0
2018-01-08T00:10:34.899Z,0
2018-01-08T00:11:15.470Z,0
2018-01-08T00:11:56.057Z,0
2018-01-08T00:12:36.623Z,0
2018-01-08T00:13:17.204Z,0
2018-01-08T00:13:57.760Z,0
2018-01-08T00:14:38.352Z,0
2018-01-08T00:15:18.919Z,0
2018-01-08T00:15:59.490Z,0
2018-01-08T00:16:40.081Z,0
2018-01-08T00:17:20.641Z,0
2018-01-08T00:18:01.206Z,0
2018-01-08T00:18:41.778Z,0
2018-01-08T00:19:22.346Z,0
2018-01-08T00:20:02.921Z,0
2018-01-08T00:20:43.473Z,0
2018-01-08T00:21:24.048Z,0
2018-01-08T00:22:04.621Z,0
2018-01-08T00:22:45.230Z,0
2018-01-08T00:23:25.799Z,0
2018-01-08T00:24:06.345Z,0
2018-01-08T00:24:46.910Z,0
2018-01-08T00:25:27.489Z,0
2018-01-08T00:26:08.068Z,0
2018-01-08T00:26:50.122Z,0
2018-01-08T00:27:30.687Z,0
2018-01-08T00:28:11.276Z,0
2018-01-08T00:28:51.909Z,0
2018-01-08T00:29:32.477Z,0
2018-01-08T00:30:13.032Z,0
2018-01-08T00:30:53.601Z,0
2018-01-08T00:31:34.169Z,0
2018-01-08T00:32:14.733Z,0
2018-01-08T00:32:55.295Z,0
2018-01-08T00:33:35.852Z,0
2018-01-08T00:34:16.418Z,0
2018-01-08T00:34:56.974Z,0
2018-01-08T00:35:37.543Z,0
2018-01-08T00:36:18.152Z,0
2018-01-08T00:36:58.683Z,0
2018-01-08T00:37:39.252Z,0
2018-01-08T00:38:19.838Z,0
2018-01-08T00:39:00.401Z,0
2018-01-08T00:39:40.968Z,0
2018-01-08T00:40:21.525Z,0
2018-01-08T00:41:02.157Z,0
2018-01-08T00:41:42.751Z,0
2018-01-08T00:42:23.374Z,0
2018-01-08T00:43:03.955Z,0
2018-01-08T00:43:44.521Z,0
2018-01-08T00:44:25.102Z,0
2018-01-08T00:45:05.673Z,0
2018-01-08T00:45:46.246Z,0
2018-01-08T00:46:26.828Z,0
2018-01-08T00:47:07.390Z,0
2018-01-08T00:47:47.959Z,0
2018-01-08T00:48:28.550Z,0
2018-01-08T00:49:09.122Z,0
2018-01-08T00:49:49.746Z,0
2018-01-08T00:50:30.344Z,0
2018-01-08T00:51:10.912Z,0
2018-01-08T00:51:51.481Z,0
2018-01-08T00:52:32.062Z,0
2018-01-08T00:53:12.680Z,0
2018-01-08T00:53:53.302Z,0
2018-01-08T00:54:33.920Z,0
2018-01-08T00:55:14.497Z,0
2018-01-08T00:55:55.104Z,0
2018-01-08T00:56:35.736Z,0
2018-01-08T00:57:16.303Z,0
2018-01-08T00:57:56.904Z,0
2018-01-08T00:58:37.501Z,0
2018-01-08T00:59:18.117Z,0
2018-01-08T00:59:58.705Z,0
2018-01-08T01:00:39.295Z,0
2018-01-08T01:01:19.870Z,0
2018-01-08T01:02:00.460Z,0
2018-01-08T01:02:41.057Z,0
2018-01-08T01:03:21.636Z,0
2018-01-08T01:04:02.250Z,0
2018-01-08T01:04:42.912Z,0
2018-01-08T01:05:23.475Z,0
2018-01-08T01:06:04.084Z,0
2018-01-08T01:06:44.729Z,0
2018-01-08T01:07:25.305Z,0
2018-01-08T01:08:05.879Z,0
2018-01-08T01:08:46.502Z,0
2018-01-08T01:09:27.162Z,0
2018-01-08T01:10:07.725Z,0
2018-01-08T01:10:48.301Z,0
2018-01-08T01:11:28.884Z,0
2018-01-08T01:12:09.450Z,0
2018-01-08T01:12:50.047Z,0
2018-01-08T01:13:30.658Z,0
2018-01-08T01:14:11.246Z,0
2018-01-08T01:14:51.880Z,0
2018-01-08T01:15:32.484Z,0
2018-01-08T01:16:13.087Z,0
2018-01-08T01:16:53.668Z,0
2018-01-08T01:17:34.286Z,0
2018-01-08T01:18:14.878Z,0
2018-01-08T01:18:55.471Z,0
2018-01-08T01:19:36.046Z,0
2018-01-08T01:20:16.612Z,0
2018-01-08T01:20:57.192Z,0
2018-01-08T01:21:37.778Z,0
2018-01-08T01:22:18.360Z,0
2018-01-08T01:22:58.939Z,0
2018-01-08T01:23:39.552Z,0
2018-01-08T01:24:20.179Z,0
2018-01-08T01:25:00.744Z,0
2018-01-08T01:25:41.356Z,0
2018-01-08T01:26:21.981Z,0
2018-01-08T01:27:02.601Z,0
2018-01-08T01:27:43.200Z,0
2018-01-08T01:28:23.881Z,0
2018-01-08T01:29:04.472Z,0
2018-01-08T01:29:45.027Z,0
2018-01-08T01:30:25.625Z,0
2018-01-08T01:31:06.175Z,0
2018-01-08T01:31:46.766Z,0
2018-01-08T01:32:27.357Z,0
2018-01-08T01:33:07.932Z,0
2018-01-08T01:33:48.529Z,0
2018-01-08T01:34:29.191Z,0
2018-01-08T01:35:09.760Z,0
2018-01-08T01:35:50.347Z,0
2018-01-08T01:36:30.946Z,0
2018-01-08T01:37:11.534Z,0
2018-01-08T01:37:52.144Z,0
2018-01-08T01:38:32.737Z,0
2018-01-08T01:39:13.351Z,0
2018-01-08T01:39:53.959Z,0
2018-01-08T01:40:34.563Z,0
2018-01-08T01:41:15.131Z,0
2018-01-08T01:41:55.711Z,0
2018-01-08T01:42:36.275Z,0
2018-01-08T01:43:16.850Z,0
2018-01-08T01:43:57.454Z,0
2018-01-08T01:44:37.996Z,0
2018-01-08T01:45:18.572Z,0
2018-01-08T01:45:59.138Z,0
2018-01-08T01:46:39.727Z,0
2018-01-08T01:47:20.336Z,0
2018-01-08T01:48:00.935Z,0
2018-01-08T01:48:41.491Z,0
2018-01-08T01:49:22.065Z,0
2018-01-08T01:50:02.640Z,0
2018-01-08T01:50:43.223Z,0
2018-01-08T01:51:23.805Z,0
2018-01-08T01:52:04.380Z,0
2018-01-08T01:52:44.959Z,0
2018-01-08T01:53:25.530Z,0
2018-01-08T01:54:06.133Z,0
2018-01-08T01:54:46.695Z,0
2018-01-08T01:55:27.286Z,0
2018-01-08T01:56:10.835Z,0
2018-01-08T01:56:51.418Z,0
2018-01-08T01:57:32.006Z,0
2018-01-08T01:58:12.584Z,0
2018-01-08T01:58:53.157Z,0
2018-01-08T01:59:33.725Z,0
2018-01-08T02:00:14.298Z,0
2018-01-08T02:00:54.859Z,0
2018-01-08T02:01:35.435Z,0
2018-01-08T02:02:16.013Z,0
2018-01-08T02:02:56.591Z,0
2018-01-08T02:03:37.209Z,0
2018-01-08T02:04:17.767Z,0
2018-01-08T02:04:58.335Z,0
2018-01-08T02:05:38.943Z,0
2018-01-08T02:06:19.525Z,0
2018-01-08T02:07:00.100Z,0
2018-01-08T02:07:40.685Z,0
2018-01-08T02:08:21.305Z,0
2018-01-08T02:09:01.906Z,0
2018-01-08T02:09:42.489Z,0
2018-01-08T02:10:23.059Z,0
2018-01-08T02:11:03.623Z,0
2018-01-08T02:11:44.186Z,0
2018-01-08T02:12:24.739Z,0
2018-01-08T02:13:05.298Z,0
2018-01-08T02:13:45.839Z,0
2018-01-08T02:14:26.410Z,0
2018-01-08T02:15:06.988Z,0
2018-01-08T02:15:47.551Z,0
2018-01-08T02:16:28.125Z,0
2018-01-08T02:17:08.686Z,0
2018-01-08T02:17:49.253Z,0
2018-01-08T02:18:29.801Z,0
2018-01-08T02:19:10.403Z,0
2018-01-08T02:19:50.958Z,0
2018-01-08T02:20:31.518Z,0
2018-01-08T02:21:12.153Z,0
2018-01-08T02:21:52.735Z,0
2018-01-08T02:22:33.306Z,0
2018-01-08T02:23:13.884Z,0
2018-01-08T02:23:54.472Z,0
2018-01-08T02:24:35.055Z,0
2018-01-08T02:25:15.627Z,0
2018-01-08T02:25:56.179Z,0
2018-01-08T02:26:36.765Z,0
2018-01-08T02:27:17.316Z,0
2018-01-08T02:27:57.875Z,0
2018-01-08T02:28:38.451Z,0
2018-01-08T02:29:19.009Z,0
2018-01-08T02:29:59.584Z,0
2018-01-08T02:30:40.154Z,0
2018-01-08T02:31:20.744Z,0
2018-01-08T02:32:01.320Z,0
2018-01-08T02:32:41.887Z,0
2018-01-08T02:33:22.515Z,0
2018-01-08T02:34:03.088Z,0
2018-01-08T02:34:43.652Z,0
2018-01-08T02:35:24.233Z,0
2018-01-08T02:36:04.815Z,0
2018-01-08T02:36:45.378Z,0
2018-01-08T02:37:25.949Z,0
2018-01-08T02:38:06.521Z,0
2018-01-08T02:38:47.107Z,0
2018-01-08T02:39:27.664Z,0
2018-01-08T02:40:08.237Z,0
2018-01-08T02:40:48.801Z,0
2018-01-08T02:41:29.404Z,0
2018-01-08T02:42:09.973Z,0
2018-01-08T02:42:50.536Z,0
2018-01-08T02:43:31.125Z,0
2018-01-08T02:44:11.688Z,0
2018-01-08T02:44:52.262Z,0
2018-01-08T02:45:32.828Z,0
2018-01-08T02:46:13.414Z,0
2018-01-08T02:46:53.983Z,0
2018-01-08T02:47:34.586Z,0
2018-01-08T02:48:15.140Z,0
2018-01-08T02:48:55.729Z,0
2018-01-08T02:49:36.324Z,0
2018-01-08T02:50:16.888Z,0
2018-01-08T02:50:57.467Z,0
2018-01-08T02:51:38.061Z,0
2018-01-08T02:52:18.672Z,0
2018-01-08T02:52:59.258Z,0
2018-01-08T02:53:39.818Z,0
2018-01-08T02:54:20.384Z,0
2018-01-08T02:55:00.946Z,0
2018-01-08T02:55:41.514Z,0
2018-01-08T02:56:22.083Z,0
2018-01-08T02:57:02.655Z,0
2018-01-08T02:57:43.217Z,0
2018-01-08T02:58:23.827Z,0
2018-01-08T02:59:04.439Z,0
2018-01-08T02:59:45.008Z,0
2018-01-08T03:00:25.586Z,0
2018-01-08T03:01:06.163Z,0
2018-01-08T03:01:46.733Z,0
2018-01-08T03:02:27.310Z,0
2018-01-08T03:03:07.883Z,0
2018-01-08T03:03:48.441Z,0
2018-01-08T03:04:29.008Z,0
2018-01-08T03:05:09.591Z,0
2018-01-08T03:05:50.187Z,0
2018-01-08T03:06:30.753Z,0
2018-01-08T03:07:11.324Z,0
2018-01-08T03:07:51.902Z,0
2018-01-08T03:08:32.472Z,0
2018-01-08T03:09:13.048Z,0
2018-01-08T03:09:53.598Z,0
2018-01-08T03:10:34.200Z,0
2018-01-08T03:11:14.764Z,0
2018-01-08T03:11:55.348Z,0
2018-01-08T03:12:35.911Z,0
2018-01-08T03:13:16.477Z,0
2018-01-08T03:13:57.029Z,0
2018-01-08T03:14:37.603Z,0
2018-01-08T03:15:18.175Z,0
2018-01-08T03:15:58.741Z,0
2018-01-08T03:16:39.316Z,0
2018-01-08T03:17:19.881Z,0
2018-01-08T03:18:00.438Z,0
2018-01-08T03:18:41.004Z,0
2018-01-08T03:19:21.568Z,0
2018-01-08T03:20:02.140Z,0
2018-01-08T03:20:42.719Z,0
2018-01-08T03:21:23.291Z,0
2018-01-08T03:22:03.853Z,0
2018-01-08T03:22:44.459Z,0
2018-01-08T03:23:25.027Z,0
2018-01-08T03:24:05.584Z,0
2018-01-08T03:24:46.156Z,0
2018-01-08T03:25:26.713Z,0
2018-01-08T03:26:07.271Z,0
2018-01-08T03:26:47.862Z,0
2018-01-08T03:27:28.426Z,0
2018-01-08T03:28:08.990Z,0
2018-01-08T03:28:49.537Z,0
2018-01-08T03:29:30.085Z,0
2018-01-08T03:30:10.676Z,0
2018-01-08T03:30:51.257Z,0
2018-01-08T03:31:31.816Z,0
2018-01-08T03:32:12.383Z,0
2018-01-08T03:32:52.944Z,0
2018-01-08T03:33:33.513Z,0
2018-01-08T03:34:14.079Z,0
2018-01-08T03:34:54.666Z,0
2018-01-08T03:35:35.228Z,0
2018-01-08T03:36:15.828Z,0
2018-01-08T03:36:56.380Z,0
2018-01-08T03:37:36.948Z,0
2018-01-08T03:38:17.514Z,0
2018-01-08T03:38:58.076Z,0
2018-01-08T03:39:38.641Z,0
2018-01-08T03:40:19.214Z,0
2018-01-08T03:40:59.784Z,0
2018-01-08T03:41:40.351Z,0
2018-01-08T03:42:20.973Z,0
2018-01-08T03:43:01.559Z,0
2018-01-08T03:43:42.148Z,0
2018-01-08T03:44:22.740Z,0
2018-01-08T03:45:03.344Z,0
2018-01-08T03:45:43.891Z,0
2018-01-08T03:46:24.444Z,0
2018-01-08T03:47:05.009Z,0
2018-01-08T03:47:45.568Z,0
2018-01-08T03:48:26.130Z,0
2018-01-08T03:49:06.679Z,0
2018-01-08T03:49:47.230Z,0
2018-01-08T03:50:27.809Z,0
2018-01-08T03:51:08.409Z,0
2018-01-08T03:51:48.970Z,0
2018-01-08T03:52:29.544Z,0
2018-01-08T03:53:10.095Z,0
2018-01-08T03:53:50.660Z,0
2018-01-08T03:54:31.231Z,0
2018-01-08T03:55:11.846Z,0
2018-01-08T03:55:52.425Z,0
2018-01-08T03:56:32.988Z,0
2018-01-08T03:57:13.539Z,0
2018-01-08T03:57:54.124Z,0
2018-01-08T03:58:34.673Z,0
2018-01-08T03:59:15.229Z,0
2018-01-08T03:59:55.811Z,0
2018-01-08T04:00:36.385Z,0
2018-01-08T04:01:16.970Z,0
2018-01-08T04:01:57.528Z,0
2018-01-08T04:02:38.092Z,0
2018-01-08T04:03:18.665Z,0
2018-01-08T04:03:59.235Z,0
2018-01-08T04:04:39.836Z,0
2018-01-08T04:05:20.404Z,0
2018-01-08T04:06:00.974Z,0
2018-01-08T04:06:41.543Z,0
2018-01-08T04:07:22.128Z,0
2018-01-08T04:08:02.721Z,0
2018-01-08T04:08:43.298Z,0
2018-01-08T04:09:23.899Z,0
2018-01-08T04:10:04.442Z,0
2018-01-08T04:10:45.036Z,0
2018-01-08T04:11:25.617Z,0
2018-01-08T04:12:06.197Z,0
2018-01-08T04:12:46.761Z,0
2018-01-08T04:13:27.324Z,0
2018-01-08T04:14:07.902Z,0
2018-01-08T04:14:48.465Z,0
2018-01-08T04:15:29.024Z,0
2018-01-08T04:16:09.603Z,0
2018-01-08T04:16:50.161Z,0
2018-01-08T04:17:30.767Z,0
2018-01-08T04:18:11.337Z,0
2018-01-08T04:18:51.905Z,0
2018-01-08T04:19:32.492Z,0
2018-01-08T04:20:13.077Z,0
2018-01-08T04:20:53.637Z,0
2018-01-08T04:21:34.194Z,0
2018-01-08T04:22:14.759Z,0
2018-01-08T04:22:55.333Z,0
2018-01-08T04:23:35.902Z,0
2018-01-08T04:24:16.480Z,0
2018-01-08T04:24:57.040Z,0
2018-01-08T04:25:37.630Z,0
2018-01-08T04:26:18.191Z,0
2018-01-08T04:26:58.756Z,0
2018-01-08T04:27:39.330Z,0
2018-01-08T04:28:19.900Z,0
2018-01-08T04:29:00.460Z,0
2018-01-08T04:29:41.035Z,0
2018-01-08T04:30:21.600Z,0
2018-01-08T04:31:02.156Z,0
2018-01-08T04:31:42.712Z,0
2018-01-08T04:32:23.277Z,0
2018-01-08T04:33:03.865Z,0
2018-01-08T04:33:44.429Z,0
2018-01-08T04:34:24.987Z,0
2018-01-08T04:35:05.561Z,0
2018-01-08T04:35:46.140Z,0
2018-01-08T04:36:26.716Z,0
2018-01-08T04:37:07.280Z,0
2018-01-08T04:37:47.839Z,0
2018-01-08T04:38:28.455Z,0
2018-01-08T04:39:09.060Z,0
2018-01-08T04:39:49.612Z,0
2018-01-08T04:40:30.179Z,0
2018-01-08T04:41:10.745Z,0
2018-01-08T04:41:51.318Z,0
2018-01-08T04:42:31.875Z,0
2018-01-08T04:43:12.441Z,0
2018-01-08T04:43:52.997Z,0
2018-01-08T04:44:33.568Z,0
2018-01-08T04:45:14.124Z,0
2018-01-08T04:45:54.694Z,0
2018-01-08T04:46:35.256Z,0
2018-01-08T04:47:15.833Z,0
2018-01-08T04:47:56.404Z,0
2018-01-08T04:48:36.990Z,0
2018-01-08T04:49:17.549Z,0
2018-01-08T04:49:58.117Z,0
2018-01-08T04:50:38.691Z,0
2018-01-08T04:51:19.254Z,0
2018-01-08T04:51:59.835Z,0
2018-01-08T04:52:40.388Z,0
2018-01-08T04:53:20.957Z,0
2018-01-08T04:54:01.533Z,0
2018-01-08T04:54:42.120Z,0
2018-01-08T04:55:22.688Z,0
2018-01-08T04:56:03.264Z,0
2018-01-08T04:56:43.852Z,0
2018-01-08T04:57:24.429Z,0
2018-01-08T04:58:05.006Z,0
2018-01-08T04:58:45.577Z,0
2018-01-08T04:59:26.140Z,0
2018-01-08T05:00:06.739Z,0
2018-01-08T05:00:47.317Z,0
2018-01-08T05:01:27.901Z,0
2018-01-08T05:02:08.539Z,0
2018-01-08T05:02:49.090Z,0
2018-01-08T05:03:29.673Z,0
2018-01-08T05:04:10.255Z,0
2018-01-08T05:04:50.826Z,0
2018-01-08T05:05:31.400Z,0
2018-01-08T05:06:11.962Z,0
2018-01-08T05:06:52.559Z,0
2018-01-08T05:07:33.134Z,0
2018-01-08T05:08:13.717Z,0
2018-01-08T05:08:54.314Z,0
2018-01-08T05:09:34.878Z,0
2018-01-08T05:10:15.454Z,0
2018-01-08T05:10:56.027Z,0
2018-01-08T05:11:36.606Z,0
2018-01-08T05:12:17.164Z,0
2018-01-08T05:12:57.744Z,0
2018-01-08T05:13:38.335Z,0
2018-01-08T05:14:18.904Z,0
2018-01-08T05:14:59.479Z,0
2018-01-08T05:15:40.043Z,0
2018-01-08T05:16:20.605Z,0
2018-01-08T05:17:01.176Z,0
2018-01-08T05:17:41.729Z,0
2018-01-08T05:18:22.291Z,0
2018-01-08T05:19:02.848Z,0
2018-01-08T05:19:43.445Z,0
2018-01-08T05:20:24.016Z,0
2018-01-08T05:21:04.621Z,0
2018-01-08T05:21:45.179Z,0
2018-01-08T05:22:25.734Z,0
2018-01-08T05:23:06.310Z,0
2018-01-08T05:23:46.866Z,0
2018-01-08T05:24:27.433Z,0
2018-01-08T05:25:07.998Z,0
2018-01-08T05:25:48.550Z,0
2018-01-08T05:26:31.907Z,0
2018-01-08T05:27:12.470Z,0
2018-01-08T05:27:53.059Z,0
2018-01-08T05:28:33.639Z,0
2018-01-08T05:29:14.242Z,0
2018-01-08T05:29:54.804Z,0
2018-01-08T05:30:35.368Z,0
2018-01-08T05:31:15.928Z,0
2018-01-08T05:31:56.481Z,0
2018-01-08T05:32:37.033Z,0
2018-01-08T05:33:17.603Z,0
2018-01-08T05:33:58.174Z,0
2018-01-08T05:34:38.732Z,0
2018-01-08T05:35:19.330Z,0
2018-01-08T05:35:59.902Z,0
2018-01-08T05:36:40.488Z,0
2018-01-08T05:37:21.086Z,0
2018-01-08T05:38:01.608Z,0
2018-01-08T05:38:42.175Z,0
2018-01-08T05:39:22.745Z,0
2018-01-08T05:40:03.315Z,0
2018-01-08T05:40:43.885Z,0
2018-01-08T05:41:24.469Z,0
2018-01-08T05:42:05.028Z,0
2018-01-08T05:42:45.582Z,0
2018-01-08T05:43:26.134Z,0
2018-01-08T05:44:06.698Z,0
2018-01-08T05:44:47.259Z,0
2018-01-08T05:45:27.819Z,0
2018-01-08T05:46:08.411Z,0
2018-01-08T05:46:48.952Z,0
2018-01-08T05:47:29.518Z,0
2018-01-08T05:48:10.081Z,0
2018-01-08T05:48:50.696Z,0
2018-01-08T05:49:31.265Z,0
2018-01-08T05:50:11.834Z,0
2018-01-08T05:50:52.409Z,0
2018-01-08T05:51:32.971Z,0
2018-01-08T05:52:13.545Z,0
2018-01-08T05:52:54.103Z,0
2018-01-08T05:53:34.672Z,0
2018-01-08T05:54:15.246Z,0
2018-01-08T05:54:55.820Z,0
2018-01-08T05:55:38.040Z,0
2018-01-08T05:56:18.610Z,0
2018-01-08T05:56:59.172Z,0
2018-01-08T05:57:39.755Z,0
2018-01-08T05:58:20.310Z,0
2018-01-08T05:59:00.887Z,0
2018-01-08T05:59:41.435Z,0
2018-01-08T06:00:21.987Z,0
2018-01-08T06:01:02.560Z,0
2018-01-08T06:01:43.126Z,0
2018-01-08T06:02:23.716Z,0
2018-01-08T06:03:04.320Z,0
2018-01-08T06:03:44.886Z,0
2018-01-08T06:04:25.452Z,0
2018-01-08T06:05:06.009Z,0
2018-01-08T06:05:46.581Z,0
2018-01-08T06:06:27.168Z,0
2018-01-08T06:07:07.728Z,0
2018-01-08T06:07:48.294Z,0
2018-01-08T06:08:28.864Z,0
2018-01-08T06:09:09.445Z,0
2018-01-08T06:09:50.012Z,0
2018-01-08T06:10:30.586Z,0
2018-01-08T06:11:11.157Z,0
2018-01-08T06:11:51.724Z,0
2018-01-08T06:12:32.293Z,0
2018-01-08T06:13:12.847Z,0
2018-01-08T06:13:53.464Z,0
2018-01-08T06:14:34.056Z,0
2018-01-08T06:15:14.642Z,0
2018-01-08T06:15:55.198Z,0
2018-01-08T06:16:35.802Z,0
2018-01-08T06:17:16.525Z,0
2018-01-08T06:17:57.096Z,0
2018-01-08T06:18:37.672Z,0
2018-01-08T06:19:18.249Z,0
2018-01-08T06:19:58.803Z,0
2018-01-08T06:20:39.384Z,0
2018-01-08T06:21:19.949Z,0
2018-01-08T06:22:00.520Z,0
2018-01-08T06:22:41.222Z,0
2018-01-08T06:23:21.797Z,0
2018-01-08T06:24:02.350Z,0
2018-01-08T06:24:42.910Z,0
2018-01-08T06:25:23.484Z,0
2018-01-08T06:26:04.044Z,0
2018-01-08T06:26:44.617Z,0
2018-01-08T06:27:25.184Z,0
2018-01-08T06:28:05.757Z,0
2018-01-08T06:28:46.328Z,0
2018-01-08T06:29:26.902Z,0
2018-01-08T06:30:07.451Z,0
2018-01-08T06:30:48.008Z,0
2018-01-08T06:31:28.578Z,0
2018-01-08T06:32:09.216Z,0
2018-01-08T06:32:49.837Z,0
2018-01-08T06:33:30.586Z,0
2018-01-08T06:34:11.165Z,0
2018-01-08T06:34:51.745Z,0
2018-01-08T06:35:32.310Z,0
2018-01-08T06:36:12.872Z,0
2018-01-08T06:36:53.496Z,0
2018-01-08T06:37:34.096Z,0
2018-01-08T06:38:14.674Z,0
2018-01-08T06:38:55.270Z,0
2018-01-08T06:39:35.851Z,0
2018-01-08T06:40:16.417Z,0
2018-01-08T06:40:56.989Z,0
2018-01-08T06:41:37.560Z,0
2018-01-08T06:42:18.120Z,0
2018-01-08T06:42:58.710Z,0
2018-01-08T06:43:39.287Z,0
2018-01-08T06:44:19.854Z,0
2018-01-08T06:45:00.421Z,0
2018-01-08T06:45:40.980Z,0
2018-01-08T06:46:21.545Z,0
2018-01-08T06:47:02.125Z,0
2018-01-08T06:47:42.733Z,0
2018-01-08T06:48:23.313Z,0
2018-01-08T06:49:03.919Z,0
2018-01-08T06:49:44.488Z,0
2018-01-08T06:50:25.119Z,0
2018-01-08T06:51:05.705Z,0
2018-01-08T06:51:46.395Z,0
2018-01-08T06:52:26.997Z,0
2018-01-08T06:53:07.608Z,0
2018-01-08T06:53:48.279Z,0
2018-01-08T06:54:28.880Z,0
2018-01-08T06:55:09.450Z,0
2018-01-08T06:55:50.030Z,0
2018-01-08T06:56:30.615Z,0
2018-01-08T06:57:11.184Z,0
2018-01-08T06:57:51.780Z,0
2018-01-08T06:58:32.354Z,0
2018-01-08T06:59:12.941Z,0
2018-01-08T06:59:53.509Z,0
2018-01-08T07:00:34.092Z,0
2018-01-08T07:01:14.669Z,0
2018-01-08T07:01:55.249Z,0
2018-01-08T07:02:35.837Z,0
2018-01-08T07:03:16.413Z,0
2018-01-08T07:03:57.010Z,0
2018-01-08T07:04:37.615Z,0
2018-01-08T07:05:18.215Z,0
2018-01-08T07:05:58.802Z,0
2018-01-08T07:06:39.374Z,0
2018-01-08T07:07:19.921Z,0
2018-01-08T07:08:00.489Z,0
2018-01-08T07:08:41.068Z,0
2018-01-08T07:09:21.660Z,0
2018-01-08T07:10:02.216Z,0
2018-01-08T07:10:42.791Z,0
2018-01-08T07:11:23.359Z,0
2018-01-08T07:12:03.926Z,0
2018-01-08T07:12:44.506Z,0
2018-01-08T07:13:25.071Z,5
2018-01-08T07:14:05.705Z,5
2018-01-08T07:14:46.261Z,5
2018-01-08T07:15:26.822Z,5
2018-01-08T07:16:07.558Z,5
2018-01-08T07:16:48.123Z,5
2018-01-08T07:17:28.683Z,5
2018-01-08T07:18:09.253Z,5
2018-01-08T07:18:49.817Z,5
2018-01-08T07:19:30.379Z,5
2018-01-08T07:20:10.955Z,5
2018-01-08T07:20:51.530Z,5
2018-01-08T07:23:25.378Z,5
2018-01-08T07:24:06.015Z,5
2018-01-08T07:24:46.568Z,5
2018-01-08T07:25:27.119Z,5
2018-01-08T07:26:07.754Z,5
2018-01-08T07:26:48.313Z,5
2018-01-08T07:27:28.870Z,10
2018-01-08T07:28:09.419Z,10
2018-01-08T07:28:49.984Z,10
2018-01-08T07:29:30.541Z,10
2018-01-08T07:30:11.123Z,10
2018-01-08T07:30:51.677Z,10
2018-01-08T07:31:32.255Z,10
2018-01-08T07:32:12.814Z,10
2018-01-08T07:32:53.382Z,10
2018-01-08T07:33:34.007Z,10
2018-01-08T07:34:14.564Z,10
2018-01-08T07:34:55.123Z,10
2018-01-08T07:35:35.713Z,10
2018-01-08T07:36:16.273Z,10
2018-01-08T07:36:56.844Z,10
2018-01-08T07:37:37.464Z,10
2018-01-08T07:38:18.102Z,10
2018-01-08T07:38:58.657Z,15
2018-01-08T07:39:39.225Z,15
2018-01-08T07:40:19.802Z,15
2018-01-08T07:41:00.382Z,15
2018-01-08T07:41:40.941Z,15
2018-01-08T07:42:21.484Z,15
2018-01-08T07:43:02.039Z,15
2018-01-08T07:43:42.595Z,15
2018-01-08T07:44:23.170Z,15
2018-01-08T07:45:03.738Z,15
2018-01-08T07:45:44.329Z,15
2018-01-08T07:46:24.909Z,15
2018-01-08T07:47:05.468Z,15
2018-01-08T07:47:46.025Z,15
2018-01-08T07:48:26.589Z,15
2018-01-08T07:49:07.196Z,20
2018-01-08T07:49:47.755Z,20
2018-01-08T07:50:28.404Z,20
2018-01-08T07:51:08.914Z,20
2018-01-08T07:51:49.499Z,20
2018-01-08T07:52:30.081Z,20
2018-01-08T07:53:10.642Z,20
2018-01-08T07:53:51.199Z,20
2018-01-08T07:54:31.829Z,20
2018-01-08T07:55:12.328Z,20
2018-01-08T07:55:52.882Z,20
2018-01-08T07:56:33.437Z,25
2018-01-08T07:57:13.987Z,25
2018-01-08T07:57:54.597Z,25
2018-01-08T07:58:35.146Z,25
2018-01-08T07:59:15.701Z,25
2018-01-08T07:59:56.258Z,25
2018-01-08T08:00:36.821Z,25
2018-01-08T08:01:17.398Z,25
2018-01-08T08:01:57.977Z,25
2018-01-08T08:02:38.537Z,25
2018-01-08T08:03:19.111Z,25
2018-01-08T08:03:59.662Z,25
2018-01-08T08:04:40.206Z,25
2018-01-08T08:05:20.759Z,30
2018-01-08T08:06:01.317Z,30
2018-01-08T08:06:41.892Z,30
2018-01-08T08:07:22.457Z,30
2018-01-08T08:08:03.030Z,30
2018-01-08T08:08:43.603Z,30
2018-01-08T08:09:24.180Z,30
2018-01-08T08:10:04.762Z,30
2018-01-08T08:10:45.341Z,30
2018-01-08T08:11:25.916Z,30
2018-01-08T08:12:06.483Z,30
2018-01-08T08:12:47.056Z,35
2018-01-08T08:13:27.625Z,35
2018-01-08T08:14:08.229Z,35
2018-01-08T08:14:48.778Z,35
2018-01-08T08:15:29.339Z,35
2018-01-08T08:16:09.918Z,35
2018-01-08T08:16:50.482Z,35
2018-01-08T08:17:31.037Z,35
2018-01-08T08:18:11.605Z,35
2018-01-08T08:18:52.181Z,35
2018-01-08T08:19:32.749Z,35
2018-01-08T08:20:13.328Z,35
2018-01-08T08:20:53.888Z,35
2018-01-08T08:21:34.443Z,35
2018-01-08T08:22:15.001Z,35
2018-01-08T08:22:55.541Z,35
2018-01-08T08:23:36.101Z,35
2018-01-08T08:24:16.676Z,35
2018-01-08T08:24:57.230Z,35
2018-01-08T08:25:37.790Z,35
2018-01-08T08:26:18.377Z,40
2018-01-08T08:26:58.925Z,40
2018-01-08T08:27:39.485Z,40
2018-01-08T08:28:20.046Z,40
2018-01-08T08:29:00.606Z,40
2018-01-08T08:29:41.158Z,40
2018-01-08T08:30:21.731Z,40
2018-01-08T08:31:02.354Z,40
2018-01-08T08:31:42.913Z,40
2018-01-08T08:32:23.514Z,40
2018-01-08T08:33:04.098Z,40
2018-01-08T08:33:44.637Z,40
2018-01-08T08:34:25.200Z,40
2018-01-08T08:35:05.756Z,40
2018-01-08T08:35:46.309Z,40
2018-01-08T08:36:26.876Z,40
2018-01-08T08:37:07.441Z,40
2018-01-08T08:37:48.033Z,40
2018-01-08T08:38:28.655Z,40
2018-01-08T08:39:09.228Z,45
2018-01-08T08:39:49.817Z,45
2018-01-08T08:40:30.406Z,45
2018-01-08T08:41:10.944Z,45
2018-01-08T08:41:51.502Z,45
2018-01-08T08:42:32.073Z,45
2018-01-08T08:43:12.642Z,45
2018-01-08T08:43:53.234Z,45
2018-01-08T08:44:33.824Z,45
2018-01-08T08:45:14.394Z,45
2018-01-08T08:45:54.947Z,45
2018-01-08T08:46:35.522Z,50
2018-01-08T08:47:16.107Z,50
2018-01-08T08:47:56.675Z,50
2018-01-08T08:48:37.233Z,50
2018-01-08T08:49:17.804Z,50
2018-01-08T08:49:58.374Z,50
2018-01-08T08:50:38.947Z,50
2018-01-08T08:51:19.544Z,90
2018-01-08T08:52:00.114Z,185
2018-01-08T08:52:40.679Z,290
2018-01-08T08:53:21.257Z,350
2018-01-08T08:54:01.819Z,345
2018-01-08T08:54:42.435Z,315
2018-01-08T08:55:23.015Z,355
2018-01-08T08:56:03.575Z,455
2018-01-08T08:56:44.117Z,555
2018-01-08T08:57:24.693Z,490
2018-01-08T08:58:05.241Z,430
2018-01-08T08:58:45.812Z,330
2018-01-08T08:59:26.422Z,310
2018-01-08T09:00:06.980Z,400
2018-01-08T09:00:47.572Z,455
2018-01-08T09:01:28.178Z,560
2018-01-08T09:02:08.779Z,645
2018-01-08T09:02:49.344Z,695
2018-01-08T09:03:29.935Z,700
2018-01-08T09:04:10.531Z,685
2018-01-08T09:04:51.102Z,680
2018-01-08T09:05:31.662Z,650
2018-01-08T09:06:12.223Z,605
2018-01-08T09:06:52.824Z,515
2018-01-08T09:07:33.393Z,520
2018-01-08T09:08:13.985Z,535
2018-01-08T09:08:54.552Z,575
2018-01-08T09:09:35.150Z,605
2018-01-08T09:10:15.729Z,575
2018-01-08T09:10:56.291Z,480
2018-01-08T09:11:36.840Z,300
2018-01-08T09:12:17.476Z,300
2018-01-08T09:12:58.042Z,525
2018-01-08T09:13:38.593Z,710
2018-01-08T09:14:19.166Z,755
2018-01-08T09:14:59.757Z,760
2018-01-08T09:15:40.329Z,760
2018-01-08T09:16:20.902Z,780
2018-01-08T09:17:01.468Z,830
2018-01-08T09:17:42.054Z,890
2018-01-08T09:18:22.625Z,920
2018-01-08T09:19:03.208Z,940
2018-01-08T09:19:43.783Z,915
2018-01-08T09:20:24.357Z,815
2018-01-08T09:21:04.906Z,755
2018-01-08T09:21:45.513Z,750
2018-01-08T09:22:26.064Z,835
2018-01-08T09:23:06.628Z,850
2018-01-08T09:23:47.228Z,805
2018-01-08T09:24:27.808Z,615
2018-01-08T09:25:08.382Z,560
2018-01-08T09:25:48.947Z,605
2018-01-08T09:26:29.561Z,615
2018-01-08T09:27:10.126Z,610
2018-01-08T09:27:50.710Z,585
2018-01-08T09:28:31.284Z,560
2018-01-08T09:29:11.850Z,550
2018-01-08T09:29:52.453Z,480
2018-01-08T09:30:33.018Z,415
2018-01-08T09:31:13.591Z,385
2018-01-08T09:31:54.158Z,415
2018-01-08T09:32:34.733Z,390
2018-01-08T09:33:15.320Z,360
2018-01-08T09:33:55.907Z,395
2018-01-08T09:34:36.492Z,440
2018-01-08T09:35:17.049Z,475
2018-01-08T09:35:57.619Z,470
2018-01-08T09:36:38.179Z,480
2018-01-08T09:37:18.768Z,495
2018-01-08T09:37:59.341Z,535
2018-01-08T09:38:39.921Z,575
2018-01-08T09:39:20.470Z,555
2018-01-08T09:40:01.070Z,505
2018-01-08T09:40:41.626Z,530
2018-01-08T09:41:22.205Z,635
2018-01-08T09:42:02.793Z,705
2018-01-08T09:42:43.345Z,740
2018-01-08T09:43:23.926Z,725
2018-01-08T09:44:04.486Z,725
2018-01-08T09:44:45.064Z,675
2018-01-08T09:45:25.627Z,640
2018-01-08T09:46:06.195Z,620
2018-01-08T09:46:46.782Z,605
2018-01-08T09:47:27.367Z,545
2018-01-08T09:48:07.935Z,540
2018-01-08T09:48:48.545Z,510
2018-01-08T09:49:29.113Z,505
2018-01-08T09:50:09.698Z,535
2018-01-08T09:50:50.348Z,560
2018-01-08T09:51:30.908Z,520
2018-01-08T09:52:11.493Z,500
2018-01-08T09:52:52.051Z,495
2018-01-08T09:53:32.626Z,475
2018-01-08T09:54:13.198Z,455